createdAt,value
2022-12-08T00:00:17.622Z,12.31
2022-12-08T00:03:07.942Z,12.29
2022-12-08T00:06:16.786Z,12.27
2022-12-08T00:09:26.330Z,12.24
2022-12-08T00:12:18.244Z,12.24
2022-12-08T00:15:10.891Z,12.24
2022-12-08T00:18:02.048Z,12.23
2022-12-08T00:20:58.167Z,12.22
2022-12-08T00:23:48.578Z,12.21
2022-12-08T00:26:39.875Z,12.19
2022-12-08T00:29:31.678Z,12.18
2022-12-08T00:32:23.383Z,12.17
2022-12-08T00:35:14.044Z,12.15
2022-12-08T00:38:05.078Z,12.12
2022-12-08T00:40:56.027Z,12.09
2022-12-08T00:43:47.267Z,12.08
2022-12-08T00:46:38.397Z,12.06
2022-12-08T00:49:28.938Z,12.04
2022-12-08T00:52:19.611Z,12.02
2022-12-08T00:55:12.988Z,12.02
2022-12-08T00:58:03.771Z,12.01
2022-12-08T01:00:54.614Z,12.00
2022-12-08T01:03:45.859Z,11.99
2022-12-08T01:06:38.144Z,11.98
2022-12-08T01:09:29.300Z,11.96
2022-12-08T01:12:20.038Z,11.92
2022-12-08T01:15:11.947Z,11.87
2022-12-08T01:18:02.686Z,11.85
2022-12-08T01:20:53.178Z,11.83
2022-12-08T01:23:43.941Z,11.81
2022-12-08T01:26:33.904Z,11.80
2022-12-08T01:29:25.113Z,11.78
2022-12-08T01:32:15.404Z,11.75
2022-12-08T01:35:06.480Z,11.73
2022-12-08T01:37:57.234Z,11.70
2022-12-08T01:40:47.911Z,11.68
2022-12-08T01:43:58.486Z,11.64
2022-12-08T01:46:49.589Z,11.61
2022-12-08T01:49:40.201Z,11.57
2022-12-08T01:52:37.043Z,11.53
2022-12-08T01:55:32.453Z,11.51
2022-12-08T01:58:26.629Z,11.50
2022-12-08T02:01:17.601Z,11.50
2022-12-08T02:04:08.693Z,11.52
2022-12-08T02:07:06.397Z,11.54
2022-12-08T02:09:59.029Z,11.56
2022-12-08T02:12:52.127Z,11.57
2022-12-08T02:15:48.932Z,11.59
2022-12-08T02:19:14.796Z,11.60
2022-12-08T02:22:06.537Z,11.61
2022-12-08T02:25:05.715Z,11.62
2022-12-08T02:28:12.823Z,11.63
2022-12-08T02:31:12.602Z,11.64
2022-12-08T02:34:26.527Z,11.64
2022-12-08T02:37:25.388Z,11.66
2022-12-08T02:40:22.827Z,11.66
2022-12-08T02:43:21.754Z,11.67
2022-12-08T02:46:17.605Z,11.69
2022-12-08T02:49:09.387Z,11.69
2022-12-08T02:52:21.970Z,11.70
2022-12-08T02:55:20.414Z,11.72
2022-12-08T02:58:42.926Z,11.71
2022-12-08T03:01:54.204Z,11.69
2022-12-08T03:04:55.237Z,11.68
2022-12-08T03:07:54.887Z,11.67
2022-12-08T03:10:48.207Z,11.67
2022-12-08T03:13:43.599Z,11.67
2022-12-08T03:16:38.439Z,11.67
2022-12-08T03:19:32.831Z,11.66
2022-12-08T03:22:26.947Z,11.65
2022-12-08T03:25:20.138Z,11.62
2022-12-08T03:28:10.528Z,11.61
2022-12-08T03:31:06.409Z,11.59
2022-12-08T03:33:59.925Z,11.58
2022-12-08T03:36:49.931Z,11.59
2022-12-08T03:39:39.837Z,11.61
2022-12-08T03:42:29.817Z,11.61
2022-12-08T03:45:20.082Z,11.62
2022-12-08T03:48:10.671Z,11.63
2022-12-08T03:51:00.871Z,11.64
2022-12-08T03:53:51.804Z,11.65
2022-12-08T03:56:41.860Z,11.64
2022-12-08T03:59:32.321Z,11.63
2022-12-08T04:02:22.855Z,11.63
2022-12-08T04:05:13.758Z,11.64
2022-12-08T04:08:04.214Z,11.64
2022-12-08T04:10:54.141Z,11.64
2022-12-08T04:13:45.161Z,11.66
2022-12-08T04:16:34.952Z,11.67
2022-12-08T04:19:24.510Z,11.67
2022-12-08T04:22:14.666Z,11.66
2022-12-08T04:25:05.304Z,11.66
2022-12-08T04:27:56.455Z,11.63
2022-12-08T04:30:47.107Z,11.62
2022-12-08T04:33:37.193Z,11.61
2022-12-08T04:36:27.227Z,11.62
2022-12-08T04:39:17.318Z,11.63
2022-12-08T04:42:07.422Z,11.64
2022-12-08T04:44:57.589Z,11.65
2022-12-08T04:47:47.840Z,11.67
2022-12-08T04:50:40.154Z,11.67
2022-12-08T04:53:30.979Z,11.66
2022-12-08T04:56:21.876Z,11.66
2022-12-08T04:59:11.825Z,11.64
2022-12-08T05:02:02.512Z,11.63
2022-12-08T05:04:53.098Z,11.61
2022-12-08T05:07:43.534Z,11.59
2022-12-08T05:10:34.182Z,11.56
2022-12-08T05:13:24.079Z,11.54
2022-12-08T05:16:16.497Z,11.53
2022-12-08T05:19:07.071Z,11.53
2022-12-08T05:21:57.078Z,11.52
2022-12-08T05:24:47.821Z,11.51
2022-12-08T05:27:39.248Z,11.50
2022-12-08T05:30:29.684Z,11.50
2022-12-08T05:33:20.660Z,11.51
2022-12-08T05:36:13.385Z,11.51
2022-12-08T05:39:04.008Z,11.49
2022-12-08T05:41:54.320Z,11.47
2022-12-08T05:44:44.841Z,11.45
2022-12-08T05:47:36.362Z,11.44
2022-12-08T05:50:26.649Z,11.44
2022-12-08T05:53:19.470Z,11.44
2022-12-08T05:56:12.249Z,11.43
2022-12-08T05:59:02.535Z,11.40
2022-12-08T06:01:52.818Z,11.38
2022-12-08T06:04:43.364Z,11.37
2022-12-08T06:07:33.552Z,11.37
2022-12-08T06:10:23.694Z,11.36
2022-12-08T06:13:14.629Z,11.36
2022-12-08T06:16:08.360Z,11.36
2022-12-08T06:18:58.678Z,11.33
2022-12-08T06:21:49.013Z,11.31
2022-12-08T06:24:39.468Z,11.30
2022-12-08T06:27:30.403Z,11.30
2022-12-08T06:30:21.471Z,11.29
2022-12-08T06:33:11.974Z,11.29
2022-12-08T06:36:03.090Z,11.28
2022-12-08T06:38:53.215Z,11.28
2022-12-08T06:41:57.342Z,11.27
2022-12-08T06:44:47.908Z,11.26
2022-12-08T06:47:37.916Z,11.27
2022-12-08T06:50:28.785Z,11.37
2022-12-08T06:53:19.654Z,11.50
2022-12-08T06:56:11.302Z,11.64
2022-12-08T06:59:02.138Z,11.78
2022-12-08T07:01:52.586Z,11.98
2022-12-08T07:04:43.536Z,12.22
2022-12-08T07:07:34.128Z,12.41
2022-12-08T07:10:24.551Z,12.58
2022-12-08T07:13:14.711Z,12.70
2022-12-08T07:16:09.133Z,12.85
2022-12-08T07:18:59.397Z,12.93
2022-12-08T07:21:49.552Z,12.94
2022-12-08T07:24:40.041Z,12.92
2022-12-08T07:27:29.819Z,13.04
2022-12-08T07:30:20.476Z,13.23
2022-12-08T07:33:10.667Z,13.42
2022-12-08T07:36:02.429Z,13.58
2022-12-08T07:38:54.401Z,13.69
2022-12-08T07:41:44.774Z,13.75
2022-12-08T07:44:35.358Z,13.77
2022-12-08T07:47:25.549Z,13.75
2022-12-08T07:50:15.538Z,13.72
2022-12-08T07:53:05.741Z,13.67
2022-12-08T07:55:55.654Z,13.62
2022-12-08T07:58:46.930Z,13.61
2022-12-08T08:01:37.460Z,13.62
2022-12-08T08:04:27.760Z,13.67
2022-12-08T08:07:18.048Z,13.72
2022-12-08T08:10:10.060Z,13.78
2022-12-08T08:13:02.992Z,13.86
2022-12-08T08:15:53.153Z,13.97
2022-12-08T08:18:43.619Z,14.15
2022-12-08T08:21:48.664Z,14.33
2022-12-08T08:24:43.222Z,14.48
2022-12-08T08:27:35.379Z,14.65
2022-12-08T08:30:26.023Z,14.81
2022-12-08T08:33:16.577Z,14.82
2022-12-08T08:36:10.632Z,14.84
2022-12-08T08:39:01.149Z,14.83
2022-12-08T08:41:51.163Z,14.82
2022-12-08T08:44:41.535Z,14.85
2022-12-08T08:47:31.361Z,14.92
2022-12-08T08:50:21.400Z,14.94
2022-12-08T08:53:12.064Z,14.95
2022-12-08T08:56:03.453Z,14.96
2022-12-08T08:58:55.203Z,14.91
2022-12-08T09:01:45.109Z,14.74
2022-12-08T09:04:36.063Z,14.74
2022-12-08T09:07:26.538Z,14.92
2022-12-08T09:10:17.783Z,15.54
2022-12-08T09:13:07.683Z,16.15
2022-12-08T09:15:58.139Z,16.76
2022-12-08T09:18:49.619Z,17.43
2022-12-08T09:21:40.755Z,18.18
2022-12-08T09:24:30.722Z,18.82
2022-12-08T09:27:21.714Z,19.15
2022-12-08T09:30:14.869Z,19.32
2022-12-08T09:33:05.296Z,19.44
2022-12-08T09:35:55.497Z,19.56
2022-12-08T09:38:46.697Z,19.53
2022-12-08T09:41:44.771Z,19.59
2022-12-08T09:44:57.447Z,19.74
2022-12-08T09:47:55.882Z,19.80
2022-12-08T09:50:52.899Z,19.88
2022-12-08T09:53:50.272Z,20.03
2022-12-08T09:56:41.016Z,20.19
2022-12-08T09:59:33.804Z,20.30
2022-12-08T10:02:26.709Z,20.41
2022-12-08T10:05:17.850Z,20.55
2022-12-08T10:08:18.277Z,20.65
2022-12-08T10:11:15.093Z,20.63
2022-12-08T10:14:16.917Z,20.49
2022-12-08T10:17:14.489Z,20.45
2022-12-08T10:20:11.837Z,20.47
2022-12-08T10:23:10.589Z,20.50
2022-12-08T10:26:05.655Z,20.48
2022-12-08T10:29:01.247Z,20.39
2022-12-08T10:31:51.125Z,20.33
2022-12-08T10:35:02.798Z,20.27
2022-12-08T10:38:00.774Z,20.25
2022-12-08T10:40:53.041Z,20.29
2022-12-08T10:43:49.057Z,20.34
2022-12-08T10:46:41.345Z,20.41
2022-12-08T10:49:35.619Z,20.34
2022-12-08T10:52:27.071Z,20.25
2022-12-08T10:55:19.926Z,20.23
2022-12-08T10:58:27.010Z,20.15
2022-12-08T11:01:22.096Z,19.82
2022-12-08T11:04:18.452Z,19.51
2022-12-08T11:07:11.800Z,19.15
2022-12-08T11:10:03.292Z,18.80
2022-12-08T11:12:53.414Z,18.50
2022-12-08T11:15:45.879Z,18.27
2022-12-08T11:18:45.093Z,18.11
2022-12-08T11:21:38.708Z,17.95
2022-12-08T11:24:36.056Z,17.72
2022-12-08T11:27:28.181Z,17.50
2022-12-08T11:30:21.072Z,17.34
2022-12-08T11:33:18.799Z,17.22
2022-12-08T11:36:14.191Z,17.18
2022-12-08T11:39:07.843Z,17.16
2022-12-08T11:42:01.102Z,17.12
2022-12-08T11:44:56.539Z,16.95
2022-12-08T11:47:55.986Z,16.84
2022-12-08T11:50:53.126Z,16.84
2022-12-08T11:53:53.795Z,16.97
2022-12-08T11:56:48.637Z,17.17
2022-12-08T11:59:44.574Z,17.29
2022-12-08T12:02:42.848Z,17.40
2022-12-08T12:09:05.915Z,17.57
2022-12-08T12:12:17.035Z,17.46
2022-12-08T12:15:49.903Z,17.38
2022-12-08T12:18:46.659Z,17.33
2022-12-08T12:21:40.977Z,17.34
2022-12-08T12:24:39.825Z,17.23
2022-12-08T12:27:37.102Z,16.98
2022-12-08T12:30:29.624Z,16.67
2022-12-08T12:33:21.686Z,16.39
2022-12-08T12:36:15.230Z,16.20
2022-12-08T12:39:06.425Z,16.02
2022-12-08T12:41:59.440Z,15.88
2022-12-08T12:45:10.159Z,15.77
2022-12-08T12:48:22.116Z,15.66
2022-12-08T12:51:45.608Z,15.52
2022-12-08T12:54:36.560Z,15.38
2022-12-08T12:57:36.738Z,15.32
2022-12-08T13:00:29.348Z,15.30
2022-12-08T13:03:20.930Z,15.35
2022-12-08T13:06:14.928Z,15.46
2022-12-08T13:09:07.378Z,15.54
2022-12-08T13:12:01.412Z,15.50
2022-12-08T13:14:56.028Z,15.46
2022-12-08T13:17:49.471Z,15.36
2022-12-08T13:20:48.530Z,15.27
2022-12-08T13:23:50.932Z,15.21
2022-12-08T13:26:47.227Z,15.11
2022-12-08T13:29:38.987Z,15.04
2022-12-08T13:36:24.171Z,14.92
2022-12-08T13:39:21.894Z,14.95
2022-12-08T13:42:21.550Z,15.00
2022-12-08T13:45:39.748Z,14.99
2022-12-08T13:49:36.600Z,14.89
2022-12-08T13:58:17.263Z,14.76
2022-12-08T14:01:13.406Z,14.72
2022-12-08T14:04:34.228Z,14.71
2022-12-08T14:07:16.326Z,14.70
2022-12-08T14:10:09.006Z,14.65
2022-12-08T14:13:02.310Z,14.64
2022-12-08T14:15:52.897Z,14.64
2022-12-08T14:18:43.520Z,14.62
2022-12-08T14:21:36.387Z,14.58
2022-12-08T14:24:29.066Z,14.55
2022-12-08T14:27:21.961Z,14.59
2022-12-08T14:30:21.623Z,14.66
2022-12-08T14:33:17.035Z,14.68
2022-12-08T14:36:11.013Z,14.63
2022-12-08T14:39:01.812Z,14.54
2022-12-08T14:42:03.616Z,14.50
2022-12-08T14:45:02.480Z,14.46
2022-12-08T14:47:52.963Z,14.47
2022-12-08T14:50:57.637Z,14.51
2022-12-08T14:53:54.695Z,14.53
2022-12-08T14:56:52.143Z,14.45
2022-12-08T14:59:44.058Z,14.37
2022-12-08T15:02:35.837Z,14.33
2022-12-08T15:05:30.740Z,14.30
2022-12-08T15:08:21.502Z,14.28
2022-12-08T15:11:28.869Z,14.28
2022-12-08T15:14:34.864Z,14.27
2022-12-08T15:17:42.103Z,14.21
2022-12-08T15:20:41.413Z,14.12
2022-12-08T15:23:33.711Z,14.07
2022-12-08T15:26:25.678Z,14.02
2022-12-08T15:29:20.727Z,14.04
2022-12-08T15:32:14.493Z,14.09
2022-12-08T15:35:04.909Z,14.10
2022-12-08T15:37:55.216Z,14.08
2022-12-08T15:40:46.276Z,14.09
2022-12-08T15:43:37.603Z,14.13
2022-12-08T15:46:28.855Z,14.17
2022-12-08T15:49:23.059Z,14.20
2022-12-08T15:52:17.632Z,14.24
2022-12-08T15:55:13.353Z,14.28
2022-12-08T15:58:51.835Z,14.29
2022-12-08T16:01:15.388Z,14.24
2022-12-08T16:04:37.246Z,14.21
2022-12-08T16:07:23.495Z,14.21
2022-12-08T16:10:19.926Z,14.23
2022-12-08T16:13:56.646Z,14.23
2022-12-08T16:16:44.946Z,14.23
2022-12-08T16:19:35.552Z,14.22
2022-12-08T16:26:09.056Z,14.13
2022-12-08T16:28:54.377Z,14.13
2022-12-08T16:31:45.482Z,14.11
2022-12-08T16:34:35.865Z,14.10
2022-12-08T16:37:28.868Z,14.08
2022-12-08T16:40:20.058Z,14.06
2022-12-08T16:43:12.206Z,14.04
2022-12-08T16:46:03.380Z,14.02
2022-12-08T16:48:53.437Z,14.01
2022-12-08T16:51:45.186Z,14.01
2022-12-08T16:54:36.229Z,14.03
2022-12-08T16:57:26.512Z,14.03
2022-12-08T17:00:20.690Z,14.03
2022-12-08T17:03:15.177Z,14.04
2022-12-08T17:06:09.131Z,14.05
2022-12-08T17:08:59.191Z,14.05
2022-12-08T17:11:49.651Z,14.06
2022-12-08T17:14:40.410Z,14.08
2022-12-08T17:17:30.888Z,14.11
2022-12-08T17:20:23.397Z,14.12
2022-12-08T17:23:13.494Z,14.13
2022-12-08T17:26:04.165Z,14.14
2022-12-08T17:29:01.930Z,14.15
2022-12-08T17:31:51.652Z,14.15
2022-12-08T17:34:41.168Z,14.16
2022-12-08T17:37:32.708Z,14.18
2022-12-08T17:40:26.861Z,14.20
2022-12-08T17:43:18.912Z,14.21
2022-12-08T17:46:09.376Z,14.21
2022-12-08T17:49:00.206Z,14.19
2022-12-08T17:51:51.972Z,14.19
2022-12-08T17:54:42.497Z,14.18
2022-12-08T17:57:32.498Z,14.17
2022-12-08T18:00:23.372Z,14.15
2022-12-08T18:03:13.540Z,14.14
2022-12-08T18:06:09.093Z,14.13
2022-12-08T18:08:59.692Z,14.14
2022-12-08T18:11:50.788Z,14.13
2022-12-08T18:14:41.518Z,14.13
2022-12-08T18:17:32.353Z,14.12
2022-12-08T18:20:22.852Z,14.13
2022-12-08T18:23:13.885Z,14.13
2022-12-08T18:26:04.920Z,14.13
2022-12-08T18:28:55.320Z,14.14
2022-12-08T18:31:45.452Z,14.15
2022-12-08T18:34:36.357Z,14.15
2022-12-08T18:37:26.372Z,14.15
2022-12-08T18:40:19.261Z,14.14
2022-12-08T18:43:09.750Z,14.13
2022-12-08T18:46:06.058Z,14.13
2022-12-08T18:48:56.624Z,14.13
2022-12-08T18:51:47.147Z,14.14
2022-12-08T18:55:05.383Z,14.14
2022-12-08T18:57:47.709Z,14.13
2022-12-08T19:00:38.202Z,14.12
2022-12-08T19:03:28.775Z,14.10
2022-12-08T19:06:19.277Z,14.09
2022-12-08T19:09:10.135Z,14.09
2022-12-08T19:12:00.018Z,14.09
2022-12-08T19:14:50.839Z,14.09
2022-12-08T19:17:41.556Z,14.09
2022-12-08T19:20:32.251Z,14.08
2022-12-08T19:23:22.635Z,14.09
2022-12-08T19:26:14.770Z,14.08
2022-12-08T19:29:04.975Z,14.07
2022-12-08T19:31:55.232Z,14.04
2022-12-08T19:34:45.092Z,14.05
2022-12-08T19:37:35.677Z,14.06
2022-12-08T19:40:43.702Z,14.09
2022-12-08T19:43:48.064Z,14.09
2022-12-08T19:46:40.575Z,14.08
2022-12-08T19:49:31.228Z,14.05
2022-12-08T19:52:22.385Z,13.98
2022-12-08T19:55:13.858Z,13.95
2022-12-08T19:58:04.266Z,13.94
2022-12-08T20:00:56.869Z,13.92
2022-12-08T20:03:47.488Z,13.91
2022-12-08T20:06:38.028Z,13.89
2022-12-08T20:09:28.466Z,13.86
2022-12-08T20:12:18.397Z,13.83
2022-12-08T20:15:11.196Z,13.81
2022-12-08T20:18:03.170Z,13.77
2022-12-08T20:20:53.718Z,13.77
2022-12-08T20:23:45.900Z,13.77
2022-12-08T20:26:35.897Z,13.78
2022-12-08T20:29:26.374Z,13.79
2022-12-08T20:32:17.078Z,13.80
2022-12-08T20:35:10.187Z,13.78
2022-12-08T20:38:00.862Z,13.71
2022-12-08T20:40:51.717Z,13.68
2022-12-08T20:43:42.413Z,13.67
2022-12-08T20:46:34.659Z,13.63
2022-12-08T20:49:29.755Z,13.60
2022-12-08T20:52:23.385Z,13.59
2022-12-08T20:55:13.985Z,13.58
2022-12-08T20:58:04.404Z,13.56
2022-12-08T21:00:54.813Z,13.52
2022-12-08T21:03:45.510Z,13.49
2022-12-08T21:06:36.393Z,13.46
2022-12-08T21:09:27.007Z,13.43
2022-12-08T21:12:18.471Z,13.40
2022-12-08T21:15:12.856Z,13.36
2022-12-08T21:18:03.638Z,13.31
2022-12-08T21:20:55.007Z,13.30
2022-12-08T21:23:45.364Z,13.28
2022-12-08T21:26:35.154Z,13.25
2022-12-08T21:29:25.456Z,13.22
2022-12-08T21:32:15.419Z,13.18
2022-12-08T21:35:06.803Z,13.13
2022-12-08T21:37:56.809Z,13.09
2022-12-08T21:40:47.607Z,13.04
2022-12-08T21:43:38.857Z,13.00
2022-12-08T21:46:28.726Z,12.94
2022-12-08T21:49:19.875Z,12.91
2022-12-08T21:52:09.810Z,12.89
2022-12-08T21:55:00.336Z,12.87
2022-12-08T21:57:50.890Z,12.85
2022-12-08T22:00:41.379Z,12.84
2022-12-08T22:03:32.019Z,12.80
2022-12-08T22:06:22.505Z,12.77
2022-12-08T22:09:13.677Z,12.72
2022-12-08T22:12:04.307Z,12.67
2022-12-08T22:14:54.478Z,12.64
2022-12-08T22:17:45.642Z,12.62
2022-12-08T22:20:40.852Z,12.61
2022-12-08T22:23:33.436Z,12.60
2022-12-08T22:26:23.364Z,12.58
2022-12-08T22:29:13.350Z,12.56
2022-12-08T22:32:03.548Z,12.55
2022-12-08T22:34:54.071Z,12.54
2022-12-08T22:37:44.039Z,12.53
2022-12-08T22:40:34.204Z,12.53
2022-12-08T22:43:24.769Z,12.53
2022-12-08T22:46:18.611Z,12.52
2022-12-08T22:49:08.801Z,12.51
2022-12-08T22:51:59.132Z,12.52
2022-12-08T22:54:48.908Z,12.54
2022-12-08T22:57:38.986Z,12.55
2022-12-08T23:00:29.987Z,12.57
2022-12-08T23:03:20.321Z,12.57
2022-12-08T23:06:17.055Z,12.57
2022-12-08T23:09:08.659Z,12.57
2022-12-08T23:11:59.650Z,12.58
2022-12-08T23:14:49.984Z,12.58
2022-12-08T23:17:39.994Z,12.57
2022-12-08T23:20:30.273Z,12.57
2022-12-08T23:23:19.998Z,12.57
2022-12-08T23:26:17.554Z,12.57
2022-12-08T23:29:07.728Z,12.56
2022-12-08T23:31:57.850Z,12.56
2022-12-08T23:34:48.079Z,12.57
2022-12-08T23:37:38.352Z,12.57
2022-12-08T23:40:28.974Z,12.58
2022-12-08T23:43:18.832Z,12.57
2022-12-08T23:46:09.789Z,12.56
2022-12-08T23:49:00.872Z,12.55
2022-12-08T23:51:50.491Z,12.52
2022-12-08T23:54:41.455Z,12.49
2022-12-08T23:57:31.173Z,12.44
